sensor_id;sensor_type;location;lat;lon;timestamp;pressure;altitude;pressure_sealevel;temperature;humidity
39177;BME280;24904;52.208;21.192;2022-07-24T00:01:50;100476.48;;;19.61;84.71
39177;BME280;24904;52.208;21.192;2022-07-24T00:06:53;100474.84;;;19.63;84.80
39177;BME280;24904;52.208;21.192;2022-07-24T00:11:56;100477.95;;;19.63;84.94
39177;BME280;24904;52.208;21.192;2022-07-24T00:17:00;100484.74;;;19.64;85.01
39177;BME280;24904;52.208;21.192;2022-07-24T00:22:04;100490.90;;;19.66;85.18
39177;BME280;24904;52.208;21.192;2022-07-24T00:27:07;100491.69;;;19.67;85.21
39177;BME280;24904;52.208;21.192;2022-07-24T00:32:10;100493.52;;;19.67;85.41
39177;BME280;24904;52.208;21.192;2022-07-24T00:37:13;100495.00;;;19.67;85.46
39177;BME280;24904;52.208;21.192;2022-07-24T00:42:16;100497.23;;;19.67;85.58
39177;BME280;24904;52.208;21.192;2022-07-24T00:47:19;100492.77;;;19.68;85.69
39177;BME280;24904;52.208;21.192;2022-07-24T00:52:23;100500.23;;;19.68;85.80
39177;BME280;24904;52.208;21.192;2022-07-24T00:57:26;100505.37;;;19.70;85.96
39177;BME280;24904;52.208;21.192;2022-07-24T01:02:29;100506.56;;;19.70;86.13
39177;BME280;24904;52.208;21.192;2022-07-24T01:07:32;100511.83;;;19.70;86.17
39177;BME280;24904;52.208;21.192;2022-07-24T01:12:37;100508.30;;;19.68;86.25
39177;BME280;24904;52.208;21.192;2022-07-24T01:17:41;100509.13;;;19.66;86.31
39177;BME280;24904;52.208;21.192;2022-07-24T01:22:44;100513.52;;;19.66;86.44
39177;BME280;24904;52.208;21.192;2022-07-24T01:27:47;100512.08;;;19.66;86.39
39177;BME280;24904;52.208;21.192;2022-07-24T01:32:50;100510.92;;;19.64;86.43
39177;BME280;24904;52.208;21.192;2022-07-24T01:37:54;100524.20;;;19.62;86.55
39177;BME280;24904;52.208;21.192;2022-07-24T01:42:57;100527.32;;;19.58;86.57
39177;BME280;24904;52.208;21.192;2022-07-24T01:48:00;100537.79;;;19.51;86.20
39177;BME280;24904;52.208;21.192;2022-07-24T01:53:03;100539.55;;;19.37;84.88
39177;BME280;24904;52.208;21.192;2022-07-24T01:58:06;100551.22;;;19.19;83.26
39177;BME280;24904;52.208;21.192;2022-07-24T02:03:09;100557.02;;;18.97;82.21
39177;BME280;24904;52.208;21.192;2022-07-24T02:08:12;100557.92;;;18.79;82.13
39177;BME280;24904;52.208;21.192;2022-07-24T02:13:16;100560.11;;;18.65;82.27
39177;BME280;24904;52.208;21.192;2022-07-24T02:18:19;100551.95;;;18.57;82.34
39177;BME280;24904;52.208;21.192;2022-07-24T02:23:22;100557.98;;;18.49;82.18
39177;BME280;24904;52.208;21.192;2022-07-24T02:28:25;100559.41;;;18.36;81.90
39177;BME280;24904;52.208;21.192;2022-07-24T02:33:28;100557.04;;;18.22;81.96
39177;BME280;24904;52.208;21.192;2022-07-24T02:38:32;100558.92;;;18.10;81.58
39177;BME280;24904;52.208;21.192;2022-07-24T02:43:35;100561.30;;;17.96;81.67
39177;BME280;24904;52.208;21.192;2022-07-24T02:48:38;100567.30;;;17.92;81.96
39177;BME280;24904;52.208;21.192;2022-07-24T02:53:41;100565.63;;;17.82;81.62
39177;BME280;24904;52.208;21.192;2022-07-24T02:58:44;100566.30;;;17.75;81.77
39177;BME280;24904;52.208;21.192;2022-07-24T03:03:47;100571.00;;;17.73;81.89
39177;BME280;24904;52.208;21.192;2022-07-24T03:08:50;100572.41;;;17.69;81.76
39177;BME280;24904;52.208;21.192;2022-07-24T03:13:53;100581.79;;;17.67;81.69
39177;BME280;24904;52.208;21.192;2022-07-24T03:18:56;100587.02;;;17.63;81.71
39177;BME280;24904;52.208;21.192;2022-07-24T03:24:00;100589.98;;;17.59;81.70
39177;BME280;24904;52.208;21.192;2022-07-24T03:29:03;100596.36;;;17.56;81.78
39177;BME280;24904;52.208;21.192;2022-07-24T03:34:06;100599.68;;;17.52;81.50
39177;BME280;24904;52.208;21.192;2022-07-24T03:39:09;100606.00;;;17.49;81.70
39177;BME280;24904;52.208;21.192;2022-07-24T03:44:12;100606.94;;;17.49;81.70
39177;BME280;24904;52.208;21.192;2022-07-24T03:49:15;100615.61;;;17.48;81.72
39177;BME280;24904;52.208;21.192;2022-07-24T03:54:18;100613.15;;;17.47;81.82
39177;BME280;24904;52.208;21.192;2022-07-24T03:59:21;100612.95;;;17.46;81.74
39177;BME280;24904;52.208;21.192;2022-07-24T04:04:25;100619.36;;;17.44;81.79
39177;BME280;24904;52.208;21.192;2022-07-24T04:09:28;100620.20;;;17.42;81.73
39177;BME280;24904;52.208;21.192;2022-07-24T04:14:31;100623.90;;;17.38;81.72
39177;BME280;24904;52.208;21.192;2022-07-24T04:19:34;100627.46;;;17.33;81.57
39177;BME280;24904;52.208;21.192;2022-07-24T04:24:38;100632.23;;;17.32;81.78
39177;BME280;24904;52.208;21.192;2022-07-24T04:29:41;100628.02;;;17.33;81.36
39177;BME280;24904;52.208;21.192;2022-07-24T04:34:44;100630.88;;;17.31;81.32
39177;BME280;24904;52.208;21.192;2022-07-24T04:39:47;100636.29;;;17.29;81.14
39177;BME280;24904;52.208;21.192;2022-07-24T04:44:50;100638.16;;;17.33;81.20
39177;BME280;24904;52.208;21.192;2022-07-24T04:49:53;100642.55;;;17.37;80.83
39177;BME280;24904;52.208;21.192;2022-07-24T04:54:56;100653.08;;;17.39;80.59
39177;BME280;24904;52.208;21.192;2022-07-24T04:59:59;100654.33;;;17.40;80.00
39177;BME280;24904;52.208;21.192;2022-07-24T05:05:03;100652.80;;;17.41;79.89
39177;BME280;24904;52.208;21.192;2022-07-24T05:10:08;100656.59;;;17.43;79.36
39177;BME280;24904;52.208;21.192;2022-07-24T05:15:11;100658.96;;;17.43;79.35
39177;BME280;24904;52.208;21.192;2022-07-24T05:20:14;100665.98;;;17.48;79.21
39177;BME280;24904;52.208;21.192;2022-07-24T05:25:18;100667.10;;;17.52;79.18
39177;BME280;24904;52.208;21.192;2022-07-24T05:30:21;100668.89;;;17.56;78.61
39177;BME280;24904;52.208;21.192;2022-07-24T05:35:24;100667.67;;;17.58;77.77
39177;BME280;24904;52.208;21.192;2022-07-24T05:40:27;100668.62;;;17.64;77.91
39177;BME280;24904;52.208;21.192;2022-07-24T05:45:31;100670.75;;;17.73;77.43
39177;BME280;24904;52.208;21.192;2022-07-24T05:50:34;100666.39;;;17.79;76.74
39177;BME280;24904;52.208;21.192;2022-07-24T05:55:37;100666.61;;;17.87;76.40
39177;BME280;24904;52.208;21.192;2022-07-24T06:00:40;100667.76;;;17.94;75.42
39177;BME280;24904;52.208;21.192;2022-07-24T06:05:43;100674.68;;;18.04;74.43
39177;BME280;24904;52.208;21.192;2022-07-24T06:10:46;100673.27;;;18.14;74.34
39177;BME280;24904;52.208;21.192;2022-07-24T06:15:50;100675.08;;;18.25;74.04
39177;BME280;24904;52.208;21.192;2022-07-24T06:20:53;100674.45;;;18.35;72.86
39177;BME280;24904;52.208;21.192;2022-07-24T06:25:56;100679.42;;;18.47;71.97
39177;BME280;24904;52.208;21.192;2022-07-24T06:30:59;100677.95;;;18.60;71.73
39177;BME280;24904;52.208;21.192;2022-07-24T06:36:02;100678.25;;;18.76;71.25
39177;BME280;24904;52.208;21.192;2022-07-24T06:41:05;100681.15;;;18.91;70.61
39177;BME280;24904;52.208;21.192;2022-07-24T06:46:08;100680.28;;;19.04;69.83
39177;BME280;24904;52.208;21.192;2022-07-24T06:51:12;100684.38;;;19.18;69.15
39177;BME280;24904;52.208;21.192;2022-07-24T06:56:15;100686.70;;;19.31;68.64
39177;BME280;24904;52.208;21.192;2022-07-24T07:01:18;100691.64;;;19.38;67.37
39177;BME280;24904;52.208;21.192;2022-07-24T07:06:21;100690.60;;;19.46;67.51
39177;BME280;24904;52.208;21.192;2022-07-24T07:11:25;100685.78;;;19.57;66.78
39177;BME280;24904;52.208;21.192;2022-07-24T07:16:28;100691.67;;;19.73;66.85
39177;BME280;24904;52.208;21.192;2022-07-24T07:21:31;100692.10;;;19.86;66.12
39177;BME280;24904;52.208;21.192;2022-07-24T07:26:34;100689.68;;;20.01;65.81
39177;BME280;24904;52.208;21.192;2022-07-24T07:31:37;100700.80;;;20.00;65.08
39177;BME280;24904;52.208;21.192;2022-07-24T07:36:40;100711.09;;;20.02;64.68
39177;BME280;24904;52.208;21.192;2022-07-24T07:41:43;100711.48;;;20.09;64.29
39177;BME280;24904;52.208;21.192;2022-07-24T07:46:46;100715.00;;;20.26;64.27
39177;BME280;24904;52.208;21.192;2022-07-24T07:51:50;100718.70;;;20.46;63.40
39177;BME280;24904;52.208;21.192;2022-07-24T07:56:54;100722.71;;;20.65;63.18
39177;BME280;24904;52.208;21.192;2022-07-24T08:01:57;100727.20;;;20.73;62.34
39177;BME280;24904;52.208;21.192;2022-07-24T08:07:00;100732.78;;;20.77;62.22
39177;BME280;24904;52.208;21.192;2022-07-24T08:12:04;100733.86;;;20.78;62.22
39177;BME280;24904;52.208;21.192;2022-07-24T08:17:07;100742.20;;;20.69;62.46
39177;BME280;24904;52.208;21.192;2022-07-24T08:22:10;100747.48;;;20.62;62.26
39177;BME280;24904;52.208;21.192;2022-07-24T08:27:13;100748.79;;;20.62;61.96
39177;BME280;24904;52.208;21.192;2022-07-24T08:32:17;100751.95;;;20.56;61.55
39177;BME280;24904;52.208;21.192;2022-07-24T08:37:20;100750.72;;;20.50;61.85
39177;BME280;24904;52.208;21.192;2022-07-24T08:42:23;100749.59;;;20.54;61.65
39177;BME280;24904;52.208;21.192;2022-07-24T08:47:27;100755.33;;;20.58;61.25
39177;BME280;24904;52.208;21.192;2022-07-24T08:52:30;100755.05;;;20.60;61.49
39177;BME280;24904;52.208;21.192;2022-07-24T08:57:34;100752.96;;;20.57;61.56
39177;BME280;24904;52.208;21.192;2022-07-24T09:02:38;100761.76;;;20.52;61.18
39177;BME280;24904;52.208;21.192;2022-07-24T09:07:41;100764.95;;;20.41;61.29
39177;BME280;24904;52.208;21.192;2022-07-24T09:12:46;100764.11;;;20.32;61.94
39177;BME280;24904;52.208;21.192;2022-07-24T09:17:51;100769.45;;;20.29;62.21
39177;BME280;24904;52.208;21.192;2022-07-24T09:22:57;100769.48;;;20.28;61.96
39177;BME280;24904;52.208;21.192;2022-07-24T09:28:02;100772.73;;;20.24;62.09
39177;BME280;24904;52.208;21.192;2022-07-24T09:33:07;100772.20;;;20.23;62.29
39177;BME280;24904;52.208;21.192;2022-07-24T09:38:13;100774.80;;;20.24;62.18
39177;BME280;24904;52.208;21.192;2022-07-24T09:43:30;100776.79;;;20.21;62.31
39177;BME280;24904;52.208;21.192;2022-07-24T09:48:38;100778.67;;;20.15;62.39
39177;BME280;24904;52.208;21.192;2022-07-24T09:53:45;100781.34;;;20.13;62.79
39177;BME280;24904;52.208;21.192;2022-07-24T09:58:50;100786.03;;;20.13;62.85
39177;BME280;24904;52.208;21.192;2022-07-24T10:03:55;100787.63;;;20.13;63.08
39177;BME280;24904;52.208;21.192;2022-07-24T10:08:59;100786.73;;;20.15;62.61
39177;BME280;24904;52.208;21.192;2022-07-24T10:14:04;100793.26;;;20.15;62.81
39177;BME280;24904;52.208;21.192;2022-07-24T10:19:13;100798.96;;;20.12;63.28
39177;BME280;24904;52.208;21.192;2022-07-24T10:24:39;100805.23;;;20.09;63.63
39177;BME280;24904;52.208;21.192;2022-07-24T10:29:47;100801.71;;;20.10;64.45
39177;BME280;24904;52.208;21.192;2022-07-24T10:34:58;100804.58;;;20.25;64.72
39177;BME280;24904;52.208;21.192;2022-07-24T10:40:21;100802.84;;;20.35;63.61
39177;BME280;24904;52.208;21.192;2022-07-24T10:45:25;100800.36;;;20.33;63.66
39177;BME280;24904;52.208;21.192;2022-07-24T10:51:00;100804.22;;;20.31;63.91
39177;BME280;24904;52.208;21.192;2022-07-24T10:56:17;100805.09;;;20.28;64.11
39177;BME280;24904;52.208;21.192;2022-07-24T11:01:39;100810.96;;;20.28;64.57
39177;BME280;24904;52.208;21.192;2022-07-24T11:06:46;100804.46;;;20.37;64.64
39177;BME280;24904;52.208;21.192;2022-07-24T11:12:06;100808.16;;;20.45;64.32
39177;BME280;24904;52.208;21.192;2022-07-24T11:17:36;100808.36;;;20.54;64.48
39177;BME280;24904;52.208;21.192;2022-07-24T11:22:42;100805.27;;;20.66;64.66
39177;BME280;24904;52.208;21.192;2022-07-24T11:27:53;100808.54;;;20.77;64.80
39177;BME280;24904;52.208;21.192;2022-07-24T11:32:59;100809.20;;;20.76;64.53
39177;BME280;24904;52.208;21.192;2022-07-24T11:38:04;100807.85;;;20.78;64.86
39177;BME280;24904;52.208;21.192;2022-07-24T11:43:08;100809.37;;;20.81;64.83
39177;BME280;24904;52.208;21.192;2022-07-24T11:48:20;100814.09;;;20.81;64.57
39177;BME280;24904;52.208;21.192;2022-07-24T11:53:23;100814.58;;;20.80;64.05
39177;BME280;24904;52.208;21.192;2022-07-24T11:58:26;100818.84;;;20.82;64.57
39177;BME280;24904;52.208;21.192;2022-07-24T12:03:30;100821.31;;;20.79;64.83
39177;BME280;24904;52.208;21.192;2022-07-24T12:08:33;100827.45;;;20.79;64.67
39177;BME280;24904;52.208;21.192;2022-07-24T12:13:41;100826.45;;;20.80;64.48
39177;BME280;24904;52.208;21.192;2022-07-24T12:18:44;100824.89;;;20.87;64.38
39177;BME280;24904;52.208;21.192;2022-07-24T12:23:47;100823.27;;;20.97;64.10
39177;BME280;24904;52.208;21.192;2022-07-24T12:29:08;100827.05;;;21.06;63.98
39177;BME280;24904;52.208;21.192;2022-07-24T12:34:12;100820.30;;;21.04;63.46
39177;BME280;24904;52.208;21.192;2022-07-24T12:39:15;100817.28;;;21.04;63.07
39177;BME280;24904;52.208;21.192;2022-07-24T12:44:18;100810.91;;;21.06;62.76
39177;BME280;24904;52.208;21.192;2022-07-24T12:49:21;100812.33;;;21.10;62.86
39177;BME280;24904;52.208;21.192;2022-07-24T12:54:26;100816.44;;;21.16;62.63
39177;BME280;24904;52.208;21.192;2022-07-24T12:59:32;100817.27;;;21.18;62.31
39177;BME280;24904;52.208;21.192;2022-07-24T13:04:43;100812.73;;;21.20;62.54
39177;BME280;24904;52.208;21.192;2022-07-24T13:09:46;100817.11;;;21.27;63.44
39177;BME280;24904;52.208;21.192;2022-07-24T13:14:50;100816.48;;;21.30;63.19
39177;BME280;24904;52.208;21.192;2022-07-24T13:19:53;100818.56;;;21.27;63.10
39177;BME280;24904;52.208;21.192;2022-07-24T13:24:57;100814.20;;;21.26;63.22
39177;BME280;24904;52.208;21.192;2022-07-24T13:30:00;100813.13;;;21.37;63.28
39177;BME280;24904;52.208;21.192;2022-07-24T13:35:03;100821.02;;;21.46;63.21
39177;BME280;24904;52.208;21.192;2022-07-24T13:40:08;100823.90;;;21.40;62.70
39177;BME280;24904;52.208;21.192;2022-07-24T13:45:14;100813.45;;;21.39;62.74
39177;BME280;24904;52.208;21.192;2022-07-24T13:50:17;100809.86;;;21.45;62.38
39177;BME280;24904;52.208;21.192;2022-07-24T13:55:20;100804.67;;;21.54;62.77
39177;BME280;24904;52.208;21.192;2022-07-24T14:00:23;100798.20;;;21.60;61.80
39177;BME280;24904;52.208;21.192;2022-07-24T14:05:27;100798.58;;;21.61;61.49
39177;BME280;24904;52.208;21.192;2022-07-24T14:10:30;100802.70;;;21.61;61.21
39177;BME280;24904;52.208;21.192;2022-07-24T14:15:33;100798.06;;;21.62;60.71
39177;BME280;24904;52.208;21.192;2022-07-24T14:20:36;100791.48;;;21.61;60.70
39177;BME280;24904;52.208;21.192;2022-07-24T14:25:39;100790.84;;;21.61;60.72
39177;BME280;24904;52.208;21.192;2022-07-24T14:30:42;100784.40;;;21.62;60.26
39177;BME280;24904;52.208;21.192;2022-07-24T14:35:46;100781.98;;;21.63;59.67
39177;BME280;24904;52.208;21.192;2022-07-24T14:40:49;100778.23;;;21.66;59.66
39177;BME280;24904;52.208;21.192;2022-07-24T14:45:52;100774.21;;;21.67;58.97
39177;BME280;24904;52.208;21.192;2022-07-24T14:50:55;100769.64;;;21.68;58.91
39177;BME280;24904;52.208;21.192;2022-07-24T14:55:58;100769.23;;;21.74;58.78
39177;BME280;24904;52.208;21.192;2022-07-24T15:01:02;100769.60;;;21.78;58.71
39177;BME280;24904;52.208;21.192;2022-07-24T15:06:06;100761.02;;;21.79;58.84
39177;BME280;24904;52.208;21.192;2022-07-24T15:11:09;100763.52;;;21.78;57.89
39177;BME280;24904;52.208;21.192;2022-07-24T15:16:12;100757.30;;;21.80;58.13
39177;BME280;24904;52.208;21.192;2022-07-24T15:21:15;100750.01;;;21.81;57.11
39177;BME280;24904;52.208;21.192;2022-07-24T15:26:19;100752.30;;;21.82;57.10
39177;BME280;24904;52.208;21.192;2022-07-24T15:31:22;100755.61;;;21.84;56.80
39177;BME280;24904;52.208;21.192;2022-07-24T15:36:25;100750.41;;;21.84;56.91
39177;BME280;24904;52.208;21.192;2022-07-24T15:41:28;100756.70;;;21.85;57.30
39177;BME280;24904;52.208;21.192;2022-07-24T15:46:32;100759.03;;;21.84;56.94
39177;BME280;24904;52.208;21.192;2022-07-24T15:51:35;100754.89;;;21.86;57.20
39177;BME280;24904;52.208;21.192;2022-07-24T15:56:38;100751.88;;;21.88;56.56
39177;BME280;24904;52.208;21.192;2022-07-24T16:01:41;100747.75;;;21.90;56.62
39177;BME280;24904;52.208;21.192;2022-07-24T16:06:46;100748.01;;;21.87;57.22
39177;BME280;24904;52.208;21.192;2022-07-24T16:11:49;100746.61;;;21.83;57.36
39177;BME280;24904;52.208;21.192;2022-07-24T16:16:53;100743.99;;;21.79;57.20
39177;BME280;24904;52.208;21.192;2022-07-24T16:21:56;100735.71;;;21.76;56.85
39177;BME280;24904;52.208;21.192;2022-07-24T16:27:01;100736.73;;;21.74;56.75
39177;BME280;24904;52.208;21.192;2022-07-24T16:32:05;100731.46;;;21.71;56.62
39177;BME280;24904;52.208;21.192;2022-07-24T16:37:08;100730.73;;;21.69;56.89
39177;BME280;24904;52.208;21.192;2022-07-24T16:42:11;100731.65;;;21.67;56.46
39177;BME280;24904;52.208;21.192;2022-07-24T16:47:14;100732.42;;;21.62;56.67
39177;BME280;24904;52.208;21.192;2022-07-24T16:52:18;100733.60;;;21.58;56.74
39177;BME280;24904;52.208;21.192;2022-07-24T16:57:21;100726.41;;;21.52;57.18
39177;BME280;24904;52.208;21.192;2022-07-24T17:02:24;100728.04;;;21.46;57.00
39177;BME280;24904;52.208;21.192;2022-07-24T17:07:27;100724.27;;;21.41;56.92
39177;BME280;24904;52.208;21.192;2022-07-24T17:12:31;100722.90;;;21.38;57.22
39177;BME280;24904;52.208;21.192;2022-07-24T17:17:34;100720.73;;;21.33;57.66
39177;BME280;24904;52.208;21.192;2022-07-24T17:22:55;100723.70;;;21.26;58.01
39177;BME280;24904;52.208;21.192;2022-07-24T17:27:58;100727.68;;;21.20;57.92
39177;BME280;24904;52.208;21.192;2022-07-24T17:33:02;100730.75;;;21.16;57.94
39177;BME280;24904;52.208;21.192;2022-07-24T17:38:05;100726.90;;;21.14;57.39
39177;BME280;24904;52.208;21.192;2022-07-24T17:43:09;100722.72;;;21.11;57.79
39177;BME280;24904;52.208;21.192;2022-07-24T17:48:12;100727.95;;;21.06;57.99
39177;BME280;24904;52.208;21.192;2022-07-24T17:53:15;100731.11;;;20.99;58.43
39177;BME280;24904;52.208;21.192;2022-07-24T17:58:18;100729.80;;;20.90;58.49
39177;BME280;24904;52.208;21.192;2022-07-24T18:03:21;100729.90;;;20.81;59.02
39177;BME280;24904;52.208;21.192;2022-07-24T18:08:25;100733.84;;;20.73;58.92
39177;BME280;24904;52.208;21.192;2022-07-24T18:13:28;100737.41;;;20.67;59.06
39177;BME280;24904;52.208;21.192;2022-07-24T18:18:33;100744.37;;;20.60;59.58
39177;BME280;24904;52.208;21.192;2022-07-24T18:23:36;100742.20;;;20.50;59.51
39177;BME280;24904;52.208;21.192;2022-07-24T18:28:39;100743.69;;;20.40;59.58
39177;BME280;24904;52.208;21.192;2022-07-24T18:33:42;100740.83;;;20.29;59.69
39177;BME280;24904;52.208;21.192;2022-07-24T18:38:45;100742.65;;;20.19;59.68
39177;BME280;24904;52.208;21.192;2022-07-24T18:43:49;100743.56;;;20.10;59.70
39177;BME280;24904;52.208;21.192;2022-07-24T18:48:52;100744.95;;;19.98;59.81
39177;BME280;24904;52.208;21.192;2022-07-24T18:53:55;100751.11;;;19.89;60.38
39177;BME280;24904;52.208;21.192;2022-07-24T18:58:58;100752.16;;;19.77;60.57
39177;BME280;24904;52.208;21.192;2022-07-24T19:04:01;100759.39;;;19.66;60.75
39177;BME280;24904;52.208;21.192;2022-07-24T19:09:04;100760.90;;;19.52;60.99
39177;BME280;24904;52.208;21.192;2022-07-24T19:14:08;100759.32;;;19.39;61.43
39177;BME280;24904;52.208;21.192;2022-07-24T19:19:11;100763.55;;;19.25;61.86
39177;BME280;24904;52.208;21.192;2022-07-24T19:24:14;100773.06;;;19.14;62.47
39177;BME280;24904;52.208;21.192;2022-07-24T19:29:17;100777.40;;;19.02;62.79
39177;BME280;24904;52.208;21.192;2022-07-24T19:34:20;100778.91;;;18.93;63.36
39177;BME280;24904;52.208;21.192;2022-07-24T19:39:24;100776.83;;;18.80;63.69
39177;BME280;24904;52.208;21.192;2022-07-24T19:44:27;100781.34;;;18.64;64.28
39177;BME280;24904;52.208;21.192;2022-07-24T19:49:30;100787.77;;;18.53;64.58
39177;BME280;24904;52.208;21.192;2022-07-24T19:54:33;100788.14;;;18.39;65.00
39177;BME280;24904;52.208;21.192;2022-07-24T19:59:36;100788.05;;;18.28;65.49
39177;BME280;24904;52.208;21.192;2022-07-24T20:04:39;100790.99;;;18.22;65.93
39177;BME280;24904;52.208;21.192;2022-07-24T20:09:42;100789.87;;;18.11;66.20
39177;BME280;24904;52.208;21.192;2022-07-24T20:14:46;100798.02;;;18.01;66.65
39177;BME280;24904;52.208;21.192;2022-07-24T20:19:49;100799.56;;;17.92;66.97
39177;BME280;24904;52.208;21.192;2022-07-24T20:24:52;100799.11;;;17.82;67.37
39177;BME280;24904;52.208;21.192;2022-07-24T20:29:55;100808.69;;;17.70;67.33
39177;BME280;24904;52.208;21.192;2022-07-24T20:34:58;100808.48;;;17.58;67.40
39177;BME280;24904;52.208;21.192;2022-07-24T20:40:02;100804.52;;;17.50;68.08
39177;BME280;24904;52.208;21.192;2022-07-24T20:45:08;100809.63;;;17.46;68.11
39177;BME280;24904;52.208;21.192;2022-07-24T20:50:11;100811.64;;;17.36;68.38
39177;BME280;24904;52.208;21.192;2022-07-24T20:55:14;100813.61;;;17.28;68.79
39177;BME280;24904;52.208;21.192;2022-07-24T21:00:18;100814.70;;;17.23;69.19
39177;BME280;24904;52.208;21.192;2022-07-24T21:05:21;100815.30;;;17.18;69.59
39177;BME280;24904;52.208;21.192;2022-07-24T21:10:24;100816.09;;;17.09;69.61
39177;BME280;24904;52.208;21.192;2022-07-24T21:15:27;100819.12;;;16.98;69.82
39177;BME280;24904;52.208;21.192;2022-07-24T21:20:30;100817.38;;;16.86;70.01
39177;BME280;24904;52.208;21.192;2022-07-24T21:25:34;100823.03;;;16.82;70.58
39177;BME280;24904;52.208;21.192;2022-07-24T21:30:37;100819.84;;;16.75;70.59
39177;BME280;24904;52.208;21.192;2022-07-24T21:35:40;100823.85;;;16.66;70.90
39177;BME280;24904;52.208;21.192;2022-07-24T21:40:43;100826.58;;;16.59;71.07
39177;BME280;24904;52.208;21.192;2022-07-24T21:45:46;100827.41;;;16.52;71.25
39177;BME280;24904;52.208;21.192;2022-07-24T21:50:49;100829.98;;;16.46;71.38
39177;BME280;24904;52.208;21.192;2022-07-24T21:55:52;100828.70;;;16.33;71.46
39177;BME280;24904;52.208;21.192;2022-07-24T22:00:56;100832.25;;;16.22;71.75
39177;BME280;24904;52.208;21.192;2022-07-24T22:05:59;100833.14;;;16.13;72.00
39177;BME280;24904;52.208;21.192;2022-07-24T22:11:02;100833.33;;;16.09;72.27
39177;BME280;24904;52.208;21.192;2022-07-24T22:16:06;100831.67;;;16.06;72.54
39177;BME280;24904;52.208;21.192;2022-07-24T22:21:09;100838.73;;;16.00;72.72
39177;BME280;24904;52.208;21.192;2022-07-24T22:26:12;100843.89;;;15.98;73.06
39177;BME280;24904;52.208;21.192;2022-07-24T22:31:16;100847.05;;;15.97;73.13
39177;BME280;24904;52.208;21.192;2022-07-24T22:36:19;100844.06;;;15.92;73.15
39177;BME280;24904;52.208;21.192;2022-07-24T22:41:23;100842.64;;;15.88;73.30
39177;BME280;24904;52.208;21.192;2022-07-24T22:46:29;100839.09;;;15.86;73.46
39177;BME280;24904;52.208;21.192;2022-07-24T22:51:33;100839.12;;;15.80;73.54
39177;BME280;24904;52.208;21.192;2022-07-24T22:56:36;100845.05;;;15.73;73.86
39177;BME280;24904;52.208;21.192;2022-07-24T23:01:40;100844.46;;;15.66;74.09
39177;BME280;24904;52.208;21.192;2022-07-24T23:06:44;100843.98;;;15.62;74.26
39177;BME280;24904;52.208;21.192;2022-07-24T23:11:47;100839.86;;;15.59;74.33
39177;BME280;24904;52.208;21.192;2022-07-24T23:16:50;100839.23;;;15.54;74.47
39177;BME280;24904;52.208;21.192;2022-07-24T23:21:53;100838.45;;;15.51;74.64
39177;BME280;24904;52.208;21.192;2022-07-24T23:26:56;100834.71;;;15.47;74.95
39177;BME280;24904;52.208;21.192;2022-07-24T23:32:00;100830.69;;;15.46;74.89
39177;BME280;24904;52.208;21.192;2022-07-24T23:37:03;100833.95;;;15.39;75.01
39177;BME280;24904;52.208;21.192;2022-07-24T23:42:07;100835.30;;;15.35;75.21
39177;BME280;24904;52.208;21.192;2022-07-24T23:47:10;100836.95;;;15.32;75.32
39177;BME280;24904;52.208;21.192;2022-07-24T23:52:13;100839.42;;;15.26;75.51
39177;BME280;24904;52.208;21.192;2022-07-24T23:57:16;100840.52;;;15.27;75.72
